岩国飛行場の過去48時間の天気

岩国飛行場 (Iwakuni)

現在時刻: 4/27 14:03 JST (4/27 05:03 UTC) 以下の時間は現地時間です。

過去48時間のMETAR気象情報
時間 風向 風速(m/s) 視程 気温(℃) 湿度(%) 気圧(hPa) 天気現象
27 13:55 東南東 5 10km以上 21.1 57 1010
27 12:55 東南東 3 10km以上 20.6 51 1010.6
27 11:55 北東 5 10km以上 18.3 68 1011.2
27 10:55 東南東 3 10km以上 16.7 72 1012.2
27 09:55 東南東 3 10km以上 16.7 65 1012
27 08:55 2 10km以上 15.6 124 1012.4
27 07:55 静穏 0 10km以上 15.6 60 1012.1
27 06:55 静穏 0 10km以上 14.4 65 1012.3
27 05:55 西北西 2 10km以上 13.9 67 1012
27 04:55 静穏 0 10km以上 13.3 69 1011.6
RJOI 270455Z 12010KT 9999 FEW030 FEW050 SCT150 21/12 A2983 RMK SLP100 T02110122
RJOI 270355Z 11006KT 9999 FEW030 FEW050 BKN110 21/10 A2985 RMK SLP106 T02060100
RJOI 270255Z 04009KT 9999 FEW040 SCT050 BKN110 18/12 A2986 RMK SLP112 T01830122 58014
RJOI 270155Z 12006KT 9999 FEW040 BKN050 BKN110 17/12 A2989 RMK SLP122 T01670117
RJOI 270055Z 11006KT 9999 FEW010 SCT050 BKN120 17/10 A2989 RMK SLP120 T01670100
RJOI 262355Z 08003KT 9999 FEW050 BKN100 BKN150 16/19 A2990 RMK SLP124 T01560089 10161 20133 53010
RJOI 262255Z 00000KT 9999 FEW010 BKN100 BKN150 16/08 A2989 RMK SLP121 T01560078
RJOI 262155Z 00000KT 9999 BKN150 BKN230 14/08 A2990 RMK SLP123 T01440078
RJOI 262055Z 30003KT 9999 FEW020 BKN150 BKN230 14/08 A2989 RMK SLP120 T01390078 56010
RJOI 261955Z 00000KT 9999 BKN180 13/08 A2988 RMK SLP116 T01330078